createdAt,value
2022-09-02T00:04:33.237Z,27.50
2022-09-02T00:09:40.516Z,27.50
2022-09-02T00:14:43.675Z,27.60
2022-09-02T00:19:46.852Z,27.60
2022-09-02T00:24:51.503Z,27.60
2022-09-02T00:29:54.724Z,27.60
2022-09-02T00:34:58.979Z,27.70
2022-09-02T00:40:04.770Z,27.70
2022-09-02T00:45:13.610Z,27.70
2022-09-02T00:50:31.103Z,27.80
2022-09-02T00:55:39.518Z,27.70
2022-09-02T01:00:46.604Z,27.80
2022-09-02T01:05:52.293Z,27.80
2022-09-02T01:10:57.929Z,27.70
2022-09-02T01:16:08.801Z,27.80
2022-09-02T01:21:12.373Z,27.80
2022-09-02T01:26:17.643Z,27.70
2022-09-02T01:31:21.437Z,27.70
2022-09-02T01:36:24.689Z,27.70
2022-09-02T01:41:29.430Z,27.80
2022-09-02T01:46:34.968Z,27.70
2022-09-02T01:51:38.874Z,27.70
2022-09-02T01:56:43.580Z,27.70
2022-09-02T02:01:47.108Z,27.70
2022-09-02T02:06:52.557Z,27.70
2022-09-02T02:11:58.516Z,27.70
2022-09-02T02:17:05.425Z,27.70
2022-09-02T02:22:09.194Z,27.70
2022-09-02T02:27:14.056Z,27.70
2022-09-02T02:32:18.501Z,27.70
2022-09-02T02:37:25.532Z,27.60
2022-09-02T02:42:31.055Z,27.60
2022-09-02T02:47:35.560Z,27.60
2022-09-02T02:52:40.298Z,27.60
2022-09-02T02:57:47.519Z,27.50
2022-09-02T03:02:51.071Z,27.50
2022-09-02T03:07:57.107Z,27.50
2022-09-02T03:13:02.233Z,27.40
2022-09-02T03:18:06.636Z,27.40
2022-09-02T03:23:11.306Z,27.40
2022-09-02T03:28:17.489Z,27.40
2022-09-02T03:33:22.131Z,27.40
2022-09-02T03:38:25.633Z,27.40
2022-09-02T03:43:30.400Z,27.30
2022-09-02T03:48:34.375Z,27.30
2022-09-02T03:53:39.206Z,27.30
2022-09-02T03:58:46.016Z,27.30
2022-09-02T04:03:50.345Z,27.20
2022-09-02T04:08:54.759Z,27.20
2022-09-02T04:14:00.951Z,27.20
2022-09-02T04:19:06.048Z,27.10
2022-09-02T04:24:11.893Z,27.10
2022-09-02T04:29:20.117Z,27.10
2022-09-02T04:34:26.190Z,27.00
2022-09-02T04:39:29.734Z,27.00
2022-09-02T04:44:35.090Z,27.00
2022-09-02T04:49:38.896Z,27.00
2022-09-02T04:54:43.031Z,27.00
2022-09-02T04:59:47.837Z,26.90
2022-09-02T05:04:52.549Z,26.90
2022-09-02T05:10:03.984Z,26.90
2022-09-02T05:15:13.347Z,26.90
2022-09-02T05:20:16.804Z,26.90
2022-09-02T05:25:21.749Z,26.80
2022-09-02T05:30:27.432Z,26.80
2022-09-02T05:35:31.580Z,26.80
2022-09-02T05:40:39.211Z,26.80
2022-09-02T05:45:47.573Z,26.70
2022-09-02T05:50:57.493Z,26.60
2022-09-02T05:56:05.921Z,26.50
2022-09-02T06:01:13.826Z,26.30
2022-09-02T06:06:18.701Z,26.10
2022-09-02T06:11:22.498Z,25.90
2022-09-02T06:16:27.629Z,25.70
2022-09-02T06:21:31.990Z,25.60
2022-09-02T06:26:36.767Z,25.50
2022-09-02T06:31:44.257Z,25.30
2022-09-02T06:36:50.744Z,25.20
2022-09-02T06:41:56.929Z,25.10
2022-09-02T06:47:05.323Z,25.00
2022-09-02T06:52:08.833Z,24.90
2022-09-02T06:57:14.625Z,24.80
2022-09-02T07:02:19.850Z,24.70
2022-09-02T07:07:24.313Z,24.60
2022-09-02T07:12:30.717Z,24.60
2022-09-02T07:17:40.593Z,24.60
2022-09-02T07:27:58.265Z,24.50
2022-09-02T07:33:05.309Z,24.50
2022-09-02T07:38:10.303Z,24.50
2022-09-02T07:43:14.722Z,24.50
2022-09-02T07:48:20.201Z,24.50
2022-09-02T07:53:24.747Z,24.50
2022-09-02T07:58:28.678Z,24.60
2022-09-02T08:03:40.157Z,24.70
2022-09-02T08:08:45.401Z,24.70
2022-09-02T08:13:49.034Z,24.80
2022-09-02T08:18:54.030Z,24.90
2022-09-02T08:23:57.614Z,25.00
2022-09-02T08:29:01.302Z,25.20
2022-09-02T08:34:05.998Z,25.30
2022-09-02T08:39:09.255Z,25.50
2022-09-02T08:44:17.026Z,25.70
2022-09-02T08:49:26.473Z,25.90
2022-09-02T08:54:36.654Z,26.00
2022-09-02T09:05:06.267Z,26.20
2022-09-02T09:10:18.607Z,26.30
2022-09-02T09:15:32.254Z,26.40
2022-09-02T09:20:39.884Z,26.50
2022-09-02T09:25:43.955Z,26.60
2022-09-02T09:30:48.355Z,26.60
2022-09-02T09:35:54.928Z,26.70
2022-09-02T09:41:15.517Z,26.80
2022-09-02T09:46:30.314Z,26.90
2022-09-02T09:51:49.958Z,27.10
2022-09-02T09:56:55.342Z,27.40
2022-09-02T10:01:58.701Z,27.70
2022-09-02T10:07:03.300Z,28.10
2022-09-02T10:12:08.032Z,28.50
2022-09-02T10:17:32.277Z,28.90
2022-09-02T10:23:00.550Z,29.30
2022-09-02T10:28:14.360Z,29.70
2022-09-02T10:33:37.780Z,30.10
2022-09-02T10:38:44.815Z,30.40
2022-09-02T10:44:23.105Z,30.70
2022-09-02T10:49:46.185Z,31.00
2022-09-02T10:55:01.271Z,31.30
2022-09-02T11:00:08.641Z,31.50
2022-09-02T11:05:17.538Z,31.70
2022-09-02T11:10:25.012Z,32.00
2022-09-02T11:15:47.583Z,32.10
2022-09-02T11:20:58.875Z,32.30
2022-09-02T11:26:09.486Z,32.50
2022-09-02T11:31:21.441Z,32.60
2022-09-02T11:36:26.367Z,32.80
2022-09-02T11:42:08.857Z,32.90
2022-09-02T11:47:41.911Z,33.00
2022-09-02T11:53:01.330Z,33.00
2022-09-02T11:58:06.055Z,33.10
2022-09-02T12:03:46.927Z,33.20
2022-09-02T12:09:14.657Z,33.30
2022-09-02T12:15:06.792Z,33.40
2022-09-02T12:20:33.096Z,33.50
2022-09-02T12:25:44.350Z,33.50
2022-09-02T12:31:11.546Z,33.50
2022-09-02T12:36:47.582Z,33.40
2022-09-02T12:41:56.887Z,33.40
2022-09-02T12:47:09.377Z,33.40
2022-09-02T12:52:35.390Z,33.40
2022-09-02T12:57:43.160Z,33.40
2022-09-02T13:02:56.596Z,33.40
2022-09-02T13:08:32.747Z,33.40
2022-09-02T13:14:18.006Z,33.40
2022-09-02T13:19:56.040Z,33.40
2022-09-02T13:25:31.779Z,33.40
2022-09-02T13:30:57.030Z,33.40
2022-09-02T13:36:00.649Z,33.40
2022-09-02T13:41:04.126Z,33.40
2022-09-02T13:46:10.555Z,33.40
2022-09-02T13:51:15.504Z,33.40
2022-09-02T13:56:25.848Z,33.40
2022-09-02T14:01:33.355Z,33.30
2022-09-02T14:06:40.268Z,33.30
2022-09-02T14:11:46.608Z,33.30
2022-09-02T14:16:52.671Z,33.30
2022-09-02T14:21:57.925Z,33.30
2022-09-02T14:27:02.093Z,33.30
2022-09-02T14:32:14.030Z,33.20
2022-09-02T14:37:23.717Z,33.10
2022-09-02T14:42:29.424Z,33.00
2022-09-02T14:47:38.978Z,32.80
2022-09-02T14:52:47.967Z,32.50
2022-09-02T14:58:02.816Z,32.30
2022-09-02T15:03:08.625Z,32.10
2022-09-02T15:08:11.827Z,31.90
2022-09-02T15:13:26.065Z,31.70
2022-09-02T15:18:30.602Z,31.40
2022-09-02T15:23:36.094Z,31.20
2022-09-02T15:28:40.283Z,31.00
2022-09-02T15:33:49.623Z,30.90
2022-09-02T15:38:52.832Z,30.80
2022-09-02T15:43:56.114Z,30.70
2022-09-02T15:49:04.626Z,30.50
2022-09-02T15:54:09.485Z,30.50
2022-09-02T15:59:14.983Z,30.40
2022-09-02T16:04:19.884Z,30.30
2022-09-02T16:09:23.388Z,30.10
2022-09-02T16:14:27.662Z,30.10
2022-09-02T16:19:32.224Z,30.00
2022-09-02T16:24:35.390Z,29.90
2022-09-02T16:29:39.602Z,29.80
2022-09-02T16:34:45.464Z,29.70
2022-09-02T16:39:48.757Z,29.60
2022-09-02T16:44:51.989Z,29.50
2022-09-02T16:49:56.549Z,29.40
2022-09-02T16:54:59.776Z,29.40
2022-09-02T17:00:03.208Z,29.30
2022-09-02T17:05:10.883Z,29.30
2022-09-02T17:10:14.219Z,29.20
2022-09-02T17:15:17.543Z,29.20
2022-09-02T17:20:22.538Z,29.10
2022-09-02T17:25:25.749Z,29.00
2022-09-02T17:30:29.122Z,28.90
2022-09-02T17:35:33.764Z,28.90
2022-09-02T17:40:53.524Z,28.80
2022-09-02T17:46:06.710Z,28.80
2022-09-02T17:51:11.865Z,28.80
2022-09-02T17:56:38.206Z,28.70
2022-09-02T18:01:54.384Z,28.70
2022-09-02T18:07:12.480Z,28.60
2022-09-02T18:12:15.772Z,28.60
2022-09-02T18:17:26.702Z,28.60
2022-09-02T18:23:06.695Z,28.50
2022-09-02T18:28:26.224Z,28.40
2022-09-02T18:33:43.389Z,28.40
2022-09-02T18:38:58.458Z,28.40
2022-09-02T18:44:15.784Z,28.30
2022-09-02T18:49:21.906Z,28.30
2022-09-02T18:54:30.113Z,28.30
2022-09-02T18:59:38.423Z,28.20
2022-09-02T19:04:42.556Z,28.10
2022-09-02T19:09:48.905Z,28.10
2022-09-02T19:14:52.133Z,28.10
2022-09-02T19:19:55.694Z,28.00
2022-09-02T19:25:03.599Z,28.00
2022-09-02T19:30:10.557Z,28.10
2022-09-02T19:35:18.543Z,28.20
2022-09-02T19:40:26.352Z,28.30
2022-09-02T19:45:30.444Z,28.40
2022-09-02T19:50:34.116Z,28.50
2022-09-02T19:55:38.782Z,28.50
2022-09-02T20:00:43.442Z,28.60
2022-09-02T20:05:47.432Z,28.50
2022-09-02T20:10:56.919Z,28.50
2022-09-02T20:16:00.258Z,28.40
2022-09-02T20:21:03.549Z,28.40
2022-09-02T20:26:23.464Z,28.30
2022-09-02T20:31:43.524Z,28.10
2022-09-02T20:36:52.842Z,28.00
2022-09-02T20:42:04.383Z,27.90
2022-09-02T20:47:21.840Z,27.80
2022-09-02T20:52:31.515Z,27.70
2022-09-02T20:57:48.268Z,27.60
2022-09-02T21:02:56.460Z,27.50
2022-09-02T21:08:05.372Z,27.40
2022-09-02T21:13:16.747Z,27.30
2022-09-02T21:18:27.769Z,27.20
2022-09-02T21:23:35.132Z,27.20
2022-09-02T21:28:43.601Z,27.10
2022-09-02T21:33:47.137Z,27.00
2022-09-02T21:38:52.153Z,27.00
2022-09-02T21:44:06.318Z,26.80
2022-09-02T21:49:23.701Z,26.80
2022-09-02T21:54:51.480Z,26.70
2022-09-02T22:00:01.413Z,26.60
2022-09-02T22:05:15.023Z,26.50
2022-09-02T22:10:28.283Z,26.50
2022-09-02T22:15:43.468Z,26.40
2022-09-02T22:20:48.157Z,26.40
2022-09-02T22:25:54.074Z,26.30
2022-09-02T22:31:02.763Z,26.20
2022-09-02T22:36:14.827Z,26.10
2022-09-02T22:41:25.258Z,26.10
2022-09-02T22:46:52.055Z,26.00
2022-09-02T22:52:21.393Z,25.90
2022-09-02T22:57:33.881Z,25.80
2022-09-02T23:02:42.791Z,25.70
2022-09-02T23:07:45.968Z,25.70
2022-09-02T23:12:55.094Z,25.60
2022-09-02T23:18:07.427Z,25.50
2022-09-02T23:23:37.778Z,25.40
2022-09-02T23:28:54.383Z,25.40
2022-09-02T23:34:10.772Z,25.30
2022-09-02T23:39:25.174Z,25.30
2022-09-02T23:44:29.094Z,25.20
2022-09-02T23:49:42.269Z,25.20
2022-09-02T23:54:56.459Z,25.00
